createdAt,value
2018-10-21T00:01:34.912Z,7.70
2018-10-21T00:04:02.343Z,7.60
2018-10-21T00:06:29.771Z,7.60
2018-10-21T00:08:57.189Z,7.60
2018-10-21T00:11:27.835Z,7.60
2018-10-21T00:13:55.240Z,7.50
2018-10-21T00:16:22.642Z,7.50
2018-10-21T00:18:50.166Z,7.40
2018-10-21T00:21:17.627Z,7.40
2018-10-21T00:23:45.052Z,7.40
2018-10-21T00:26:12.474Z,7.30
2018-10-21T00:28:39.887Z,7.30
2018-10-21T00:31:07.296Z,7.30
2018-10-21T00:33:34.714Z,7.30
2018-10-21T00:36:02.127Z,7.30
2018-10-21T00:38:29.525Z,7.30
2018-10-21T00:40:56.939Z,7.30
2018-10-21T00:43:28.140Z,7.20
2018-10-21T00:45:55.542Z,7.30
2018-10-21T00:48:22.963Z,7.30
2018-10-21T00:50:50.371Z,7.30
2018-10-21T00:53:17.799Z,7.30
2018-10-21T00:55:45.227Z,7.30
2018-10-21T00:58:12.631Z,7.30
2018-10-21T01:00:40.035Z,7.30
2018-10-21T01:03:07.545Z,7.30
2018-10-21T01:05:34.889Z,7.30
2018-10-21T01:08:02.307Z,7.40
2018-10-21T01:10:30.703Z,7.30
2018-10-21T01:12:58.109Z,7.40
2018-10-21T01:15:25.533Z,7.40
2018-10-21T01:17:52.971Z,7.40
2018-10-21T01:20:20.399Z,7.40
2018-10-21T01:22:47.807Z,7.30
2018-10-21T01:25:15.251Z,7.30
2018-10-21T01:27:42.682Z,7.30
2018-10-21T01:30:11.079Z,7.30
2018-10-21T01:32:39.516Z,7.30
2018-10-21T01:35:07.594Z,7.30
2018-10-21T01:37:35.022Z,7.20
2018-10-21T01:40:48.050Z,7.20
2018-10-21T01:43:16.702Z,7.20
2018-10-21T01:45:44.200Z,7.10
2018-10-21T01:48:12.834Z,7.10
2018-10-21T01:50:40.288Z,7.10
2018-10-21T01:53:08.895Z,7.10
2018-10-21T01:55:36.344Z,7.00
2018-10-21T01:58:04.244Z,7.00
2018-10-21T02:00:32.280Z,7.00
2018-10-21T02:03:00.062Z,7.00
2018-10-21T02:05:27.690Z,6.90
2018-10-21T02:07:55.463Z,6.90
2018-10-21T02:10:22.870Z,6.80
2018-10-21T02:12:50.327Z,6.80
2018-10-21T02:15:17.774Z,6.80
2018-10-21T02:17:45.216Z,6.70
2018-10-21T02:20:13.555Z,6.60
2018-10-21T02:22:44.667Z,6.60
2018-10-21T02:25:12.183Z,6.50
2018-10-21T02:27:40.234Z,6.50
2018-10-21T02:30:09.047Z,6.40
2018-10-21T02:32:36.520Z,6.40
2018-10-21T02:35:04.937Z,6.30
2018-10-21T02:37:32.352Z,6.30
2018-10-21T02:39:59.771Z,6.30
2018-10-21T02:42:27.183Z,6.30
2018-10-21T02:44:54.634Z,6.30
2018-10-21T02:47:22.055Z,6.30
2018-10-21T02:49:49.455Z,6.20
2018-10-21T02:52:16.908Z,6.30
2018-10-21T02:54:44.427Z,6.30
2018-10-21T02:57:12.968Z,6.30
2018-10-21T02:59:40.323Z,6.30
2018-10-21T03:02:07.831Z,6.30
2018-10-21T03:04:35.247Z,6.30
2018-10-21T03:07:02.703Z,6.30
2018-10-21T03:09:30.508Z,6.30
2018-10-21T03:11:57.971Z,6.30
2018-10-21T03:14:25.430Z,6.40
2018-10-21T03:16:52.843Z,6.40
2018-10-21T03:19:20.256Z,6.30
2018-10-21T03:21:47.706Z,6.40
2018-10-21T03:24:15.139Z,6.40
2018-10-21T03:26:43.468Z,6.40
2018-10-21T03:29:10.863Z,6.40
2018-10-21T03:31:38.275Z,6.40
2018-10-21T03:34:05.854Z,6.30
2018-10-21T03:36:33.134Z,6.40
2018-10-21T03:39:00.574Z,6.40
2018-10-21T03:41:27.979Z,6.40
2018-10-21T03:43:55.407Z,6.50
2018-10-21T03:46:22.824Z,6.50
2018-10-21T03:48:50.231Z,6.50
2018-10-21T03:51:17.687Z,6.50
2018-10-21T03:53:45.091Z,6.50
2018-10-21T03:56:12.511Z,6.40
2018-10-21T03:58:39.923Z,6.40
2018-10-21T04:01:07.997Z,6.30
2018-10-21T04:03:35.478Z,6.30
2018-10-21T04:06:02.927Z,6.40
2018-10-21T04:08:30.331Z,6.40
2018-10-21T04:10:57.815Z,6.40
2018-10-21T04:13:25.258Z,6.40
2018-10-21T04:15:52.696Z,6.40
2018-10-21T04:18:20.115Z,6.40
2018-10-21T04:20:47.559Z,6.40
2018-10-21T04:23:14.955Z,6.40
2018-10-21T04:25:42.350Z,6.40
2018-10-21T04:28:10.215Z,6.40
2018-10-21T04:30:38.721Z,6.40
2018-10-21T04:33:11.923Z,6.40
2018-10-21T04:35:39.355Z,6.40
2018-10-21T04:38:26.267Z,6.30
2018-10-21T04:40:53.695Z,6.30
2018-10-21T04:43:21.149Z,6.30
2018-10-21T04:45:48.575Z,6.30
2018-10-21T04:48:16.027Z,6.30
2018-10-21T04:50:43.666Z,6.30
2018-10-21T04:53:11.075Z,6.20
2018-10-21T04:55:38.518Z,6.20
2018-10-21T04:58:06.063Z,6.20
2018-10-21T05:00:33.483Z,6.10
2018-10-21T05:03:00.867Z,6.10
2018-10-21T05:05:28.255Z,6.10
2018-10-21T05:07:55.686Z,6.10
2018-10-21T05:10:34.662Z,6.10
2018-10-21T05:13:02.655Z,6.10
2018-10-21T05:15:31.240Z,6.00
2018-10-21T05:17:58.683Z,6.00
2018-10-21T05:20:26.066Z,6.10
2018-10-21T05:22:53.596Z,6.10
2018-10-21T05:25:21.031Z,6.10
2018-10-21T05:27:48.423Z,6.00
2018-10-21T05:30:15.847Z,6.00
2018-10-21T05:32:47.144Z,5.90
2018-10-21T05:35:15.603Z,5.80
2018-10-21T05:37:43.103Z,5.80
2018-10-21T05:40:12.936Z,5.70
2018-10-21T05:42:40.383Z,5.70
2018-10-21T05:45:08.191Z,5.70
2018-10-21T05:47:36.054Z,5.60
2018-10-21T05:50:03.603Z,5.60
2018-10-21T05:52:31.026Z,5.50
2018-10-21T05:54:58.418Z,5.50
2018-10-21T05:57:25.831Z,5.50
2018-10-21T05:59:53.279Z,5.40
2018-10-21T06:02:20.695Z,5.40
2018-10-21T06:04:48.091Z,5.30
2018-10-21T06:07:15.515Z,5.30
2018-10-21T06:09:42.901Z,5.30
2018-10-21T06:12:10.322Z,5.30
2018-10-21T06:14:37.735Z,5.30
2018-10-21T06:17:12.966Z,5.20
2018-10-21T06:19:48.225Z,5.20
2018-10-21T06:22:15.719Z,5.20
2018-10-21T06:24:43.130Z,5.10
2018-10-21T06:27:10.543Z,5.10
2018-10-21T06:29:37.939Z,5.20
2018-10-21T06:32:05.422Z,5.30
2018-10-21T06:34:32.835Z,5.40
2018-10-21T06:37:00.431Z,5.40
2018-10-21T06:39:27.829Z,5.50
2018-10-21T06:41:55.264Z,5.50
2018-10-21T06:44:22.667Z,5.60
2018-10-21T06:46:50.111Z,5.70
2018-10-21T06:49:17.503Z,5.70
2018-10-21T06:51:44.912Z,5.80
2018-10-21T06:54:12.351Z,5.90
2018-10-21T06:56:39.940Z,6.00
2018-10-21T06:59:07.195Z,6.10
2018-10-21T07:01:34.998Z,6.20
2018-10-21T07:04:02.449Z,6.30
2018-10-21T07:06:30.031Z,6.40
2018-10-21T07:09:00.859Z,6.50
2018-10-21T07:11:28.271Z,6.70
2018-10-21T07:13:55.709Z,6.90
2018-10-21T07:16:26.474Z,7.20
2018-10-21T07:18:53.839Z,7.80
2018-10-21T07:21:21.263Z,9.00
2018-10-21T07:23:48.656Z,9.20
2018-10-21T07:26:16.074Z,9.30
2018-10-21T07:28:43.495Z,10.10
2018-10-21T07:31:10.884Z,10.70
2018-10-21T07:33:38.308Z,11.20
2018-10-21T07:36:05.737Z,13.90
2018-10-21T07:38:36.825Z,17.10
2018-10-21T07:41:04.479Z,19.30
2018-10-21T07:43:31.883Z,20.70
2018-10-21T07:45:59.395Z,21.80
2018-10-21T07:48:26.720Z,22.50
2018-10-21T07:50:54.151Z,23.10
2018-10-21T07:53:21.552Z,23.50
2018-10-21T07:55:49.053Z,23.50
2018-10-21T07:58:16.416Z,23.70
2018-10-21T08:00:43.833Z,24.00
2018-10-21T08:03:11.204Z,24.30
2018-10-21T08:05:50.195Z,24.20
2018-10-21T08:08:19.899Z,24.30
2018-10-21T08:10:47.311Z,24.20
2018-10-21T08:13:16.907Z,23.30
2018-10-21T08:15:44.666Z,21.80
2018-10-21T08:18:12.818Z,20.40
2018-10-21T08:20:41.179Z,20.50
2018-10-21T08:23:09.954Z,22.10
2018-10-21T08:25:37.708Z,21.40
2018-10-21T08:28:05.159Z,19.80
2018-10-21T08:30:32.581Z,19.30
2018-10-21T08:32:59.982Z,18.90
2018-10-21T08:35:27.389Z,19.40
2018-10-21T08:37:54.819Z,19.40
2018-10-21T08:40:25.298Z,19.60
2018-10-21T08:42:52.707Z,19.00
2018-10-21T08:45:20.118Z,17.60
2018-10-21T08:47:47.555Z,16.40
2018-10-21T08:50:14.963Z,15.60
2018-10-21T08:52:42.380Z,15.40
2018-10-21T08:55:10.636Z,14.90
2018-10-21T08:57:38.247Z,14.70
2018-10-21T09:00:12.754Z,14.40
2018-10-21T09:02:40.635Z,14.30
2018-10-21T09:05:09.803Z,14.20
2018-10-21T09:07:37.243Z,14.00
2018-10-21T09:10:05.725Z,13.80
2018-10-21T09:12:33.077Z,13.70
2018-10-21T09:15:00.543Z,13.60
2018-10-21T09:17:27.936Z,13.60
2018-10-21T09:19:55.391Z,13.40
2018-10-21T09:22:22.791Z,13.40
2018-10-21T09:24:50.191Z,13.70
2018-10-21T09:27:17.600Z,14.10
2018-10-21T09:29:45.015Z,14.10
2018-10-21T09:32:12.423Z,14.10
2018-10-21T09:34:39.831Z,14.00
2018-10-21T09:37:07.316Z,14.00
2018-10-21T09:39:34.670Z,13.90
2018-10-21T09:42:02.127Z,13.90
2018-10-21T09:44:29.514Z,13.90
2018-10-21T09:46:56.923Z,13.80
2018-10-21T09:49:24.347Z,13.90
2018-10-21T09:51:51.767Z,13.90
2018-10-21T09:54:20.231Z,14.00
2018-10-21T09:56:47.660Z,14.00
2018-10-21T09:59:15.084Z,14.00
2018-10-21T10:01:48.351Z,14.10
2018-10-21T10:04:15.837Z,14.10
2018-10-21T10:06:43.209Z,14.10
2018-10-21T10:09:12.108Z,14.00
2018-10-21T10:11:39.951Z,14.00
2018-10-21T10:14:07.343Z,14.10
2018-10-21T10:16:34.771Z,14.10
2018-10-21T10:19:02.300Z,14.00
2018-10-21T10:21:29.705Z,14.00
2018-10-21T10:23:57.186Z,14.00
2018-10-21T10:26:24.555Z,13.90
2018-10-21T10:28:51.958Z,13.90
2018-10-21T10:31:19.468Z,13.90
2018-10-21T10:33:50.251Z,13.90
2018-10-21T10:36:17.790Z,13.90
2018-10-21T10:38:45.119Z,13.90
2018-10-21T10:41:12.519Z,14.00
2018-10-21T10:43:39.923Z,14.10
2018-10-21T10:46:07.340Z,14.10
2018-10-21T10:48:34.754Z,14.00
2018-10-21T10:51:02.173Z,14.00
2018-10-21T10:53:29.607Z,14.10
2018-10-21T10:55:57.008Z,14.10
2018-10-21T10:58:24.433Z,14.00
2018-10-21T11:00:51.846Z,14.00
2018-10-21T11:03:19.261Z,14.20
2018-10-21T11:05:46.680Z,14.30
2018-10-21T11:08:17.218Z,14.30
2018-10-21T11:10:44.623Z,14.30
2018-10-21T11:13:12.092Z,14.30
2018-10-21T11:15:39.459Z,14.30
2018-10-21T11:18:06.872Z,14.40
2018-10-21T11:20:34.299Z,14.40
2018-10-21T11:23:01.707Z,14.50
2018-10-21T11:25:29.115Z,14.40
2018-10-21T11:27:56.526Z,14.50
2018-10-21T11:30:23.931Z,14.50
2018-10-21T11:32:55.163Z,14.50
2018-10-21T11:35:22.554Z,14.50
2018-10-21T11:37:49.948Z,14.50
2018-10-21T11:40:17.439Z,14.50
2018-10-21T11:42:44.807Z,14.50
2018-10-21T11:45:12.239Z,14.70
2018-10-21T11:47:39.654Z,14.70
2018-10-21T11:50:07.155Z,14.70
2018-10-21T11:52:34.660Z,14.90
2018-10-21T11:55:02.043Z,14.90
2018-10-21T11:57:29.399Z,14.90
2018-10-21T11:59:56.822Z,15.00
2018-10-21T12:02:24.243Z,15.10
2018-10-21T12:04:52.475Z,15.10
2018-10-21T12:07:19.875Z,15.20
2018-10-21T12:09:47.311Z,15.30
2018-10-21T12:12:14.695Z,15.40
2018-10-21T12:14:42.088Z,15.50
2018-10-21T12:17:09.511Z,15.60
2018-10-21T12:19:36.899Z,15.50
2018-10-21T12:22:04.673Z,15.50
2018-10-21T12:24:32.039Z,15.40
2018-10-21T12:26:59.428Z,15.30
2018-10-21T12:29:26.839Z,15.30
2018-10-21T12:31:54.255Z,15.20
2018-10-21T12:34:21.647Z,15.10
2018-10-21T12:36:49.059Z,15.10
2018-10-21T12:39:16.492Z,15.20
2018-10-21T12:41:43.883Z,15.20
2018-10-21T12:44:11.283Z,15.20
2018-10-21T12:46:39.350Z,15.20
2018-10-21T12:49:06.755Z,15.20
2018-10-21T12:51:34.355Z,15.20
2018-10-21T12:54:01.814Z,15.20
2018-10-21T12:56:29.233Z,15.30
2018-10-21T12:58:56.639Z,15.30
2018-10-21T13:01:24.068Z,15.30
2018-10-21T13:03:51.463Z,15.30
2018-10-21T13:06:18.883Z,15.30
2018-10-21T13:08:46.303Z,15.30
2018-10-21T13:11:13.679Z,15.30
2018-10-21T13:13:41.068Z,15.30
2018-10-21T13:16:08.573Z,15.30
2018-10-21T13:18:35.943Z,15.30
2018-10-21T13:21:03.435Z,15.40
2018-10-21T13:23:30.855Z,15.40
2018-10-21T13:25:58.247Z,15.40
2018-10-21T13:28:28.785Z,15.40
2018-10-21T13:30:56.542Z,15.50
2018-10-21T13:33:26.691Z,15.50
2018-10-21T13:35:54.405Z,15.40
2018-10-21T13:38:22.212Z,15.40
2018-10-21T13:40:49.970Z,15.30
2018-10-21T13:43:17.723Z,15.30
2018-10-21T13:45:45.556Z,15.40
2018-10-21T13:48:13.287Z,15.40
2018-10-21T13:50:41.056Z,15.40
2018-10-21T13:53:28.280Z,15.40
2018-10-21T13:55:56.032Z,15.40
2018-10-21T13:58:23.824Z,15.30
2018-10-21T14:00:51.667Z,15.30
2018-10-21T14:03:19.356Z,15.20
2018-10-21T14:05:47.076Z,15.20
2018-10-21T14:08:14.824Z,15.20
2018-10-21T14:10:42.523Z,15.30
2018-10-21T14:13:10.423Z,15.30
2018-10-21T14:15:38.252Z,15.30
2018-10-21T14:18:05.983Z,15.30
2018-10-21T14:20:33.692Z,15.30
2018-10-21T14:23:01.484Z,15.30
2018-10-21T14:25:29.248Z,15.30
2018-10-21T14:27:56.982Z,15.20
2018-10-21T14:30:24.857Z,15.30
2018-10-21T14:32:52.472Z,15.30
2018-10-21T14:35:20.129Z,15.30
2018-10-21T14:37:47.830Z,15.30
2018-10-21T14:40:16.507Z,15.30
2018-10-21T14:42:45.179Z,15.30
2018-10-21T14:45:13.025Z,15.40
2018-10-21T14:47:40.863Z,15.30
2018-10-21T14:50:09.522Z,15.40
2018-10-21T14:52:37.223Z,15.40
2018-10-21T14:55:05.802Z,15.40
2018-10-21T14:57:33.560Z,15.30
2018-10-21T15:00:01.299Z,15.30
2018-10-21T15:02:28.981Z,15.30
2018-10-21T15:04:56.672Z,15.30
2018-10-21T15:07:24.376Z,15.30
2018-10-21T15:09:52.132Z,15.20
2018-10-21T15:12:19.840Z,15.20
2018-10-21T15:23:51.011Z,14.10
2018-10-21T15:26:18.481Z,15.50
2018-10-21T15:28:45.851Z,15.30
2018-10-21T15:31:13.284Z,14.80
2018-10-21T15:33:40.716Z,14.60
2018-10-21T15:36:08.144Z,14.50
2018-10-21T15:38:35.584Z,14.30
2018-10-21T15:41:03.087Z,14.30
2018-10-21T15:43:30.540Z,14.30
2018-10-21T15:45:58.018Z,14.10
2018-10-21T15:48:25.420Z,14.00
2018-10-21T15:50:52.847Z,14.00
2018-10-21T15:53:20.295Z,14.00
2018-10-21T15:55:47.715Z,14.10
2018-10-21T15:58:15.185Z,13.80
2018-10-21T16:00:42.587Z,13.90
2018-10-21T16:03:13.579Z,13.80
2018-10-21T16:05:41.048Z,13.90
2018-10-21T16:08:11.637Z,13.80
2018-10-21T16:10:39.079Z,13.70
2018-10-21T16:13:07.467Z,13.70
2018-10-21T16:15:34.941Z,13.70
2018-10-21T16:18:02.447Z,13.60
2018-10-21T16:20:30.640Z,13.50
2018-10-21T16:22:58.078Z,13.50
2018-10-21T16:25:25.615Z,13.30
2018-10-21T16:27:53.004Z,13.20
2018-10-21T16:30:20.431Z,13.30
2018-10-21T16:32:48.122Z,13.30
2018-10-21T16:35:15.435Z,13.20
2018-10-21T16:37:42.868Z,13.20
2018-10-21T16:40:12.363Z,13.20
2018-10-21T16:42:39.838Z,13.00
2018-10-21T16:45:07.768Z,13.00
2018-10-21T16:47:39.317Z,12.90
2018-10-21T16:50:12.811Z,12.90
2018-10-21T16:52:40.905Z,12.80
2018-10-21T16:55:09.285Z,12.50
2018-10-21T16:57:36.949Z,12.40
2018-10-21T17:00:06.691Z,12.50
2018-10-21T17:02:34.047Z,12.50
2018-10-21T17:05:01.525Z,12.30
2018-10-21T17:07:33.399Z,12.20
2018-10-21T17:10:01.214Z,12.30
2018-10-21T17:12:28.417Z,12.20
2018-10-21T17:14:55.924Z,12.10
2018-10-21T17:17:23.409Z,12.10
2018-10-21T17:19:50.861Z,12.10
2018-10-21T17:22:22.243Z,12.00
2018-10-21T17:24:49.793Z,11.90
2018-10-21T17:27:17.400Z,11.80
2018-10-21T17:29:44.883Z,11.80
2018-10-21T17:32:12.329Z,11.70
2018-10-21T17:34:39.819Z,11.60
2018-10-21T17:37:07.345Z,11.60
2018-10-21T17:39:35.028Z,11.50
2018-10-21T17:42:02.863Z,11.50
2018-10-21T17:44:31.600Z,11.40
2018-10-21T17:47:03.489Z,11.40
2018-10-21T17:49:31.940Z,11.30
2018-10-21T17:52:04.687Z,11.30
2018-10-21T17:54:33.135Z,11.30
2018-10-21T17:57:02.364Z,11.20
2018-10-21T17:59:35.251Z,11.20
2018-10-21T18:02:05.099Z,11.20
2018-10-21T18:04:33.487Z,11.10
2018-10-21T18:07:02.884Z,11.00
2018-10-21T18:09:32.592Z,11.10
2018-10-21T18:12:02.298Z,11.10
2018-10-21T18:14:32.244Z,11.00
2018-10-21T18:17:02.200Z,10.80
2018-10-21T18:19:32.091Z,10.70
2018-10-21T18:22:06.369Z,10.80
2018-10-21T18:24:37.412Z,10.80
2018-10-21T18:27:11.645Z,10.80
2018-10-21T18:29:43.013Z,10.80
2018-10-21T18:32:13.297Z,10.70
2018-10-21T18:34:44.177Z,10.80
2018-10-21T18:37:17.721Z,10.80
2018-10-21T18:39:48.939Z,10.90
2018-10-21T18:42:18.971Z,10.90
2018-10-21T18:44:48.972Z,10.90
2018-10-21T18:47:18.960Z,10.80
2018-10-21T18:49:49.636Z,10.80
2018-10-21T18:52:19.758Z,10.80
2018-10-21T18:54:49.769Z,10.60
2018-10-21T18:57:19.836Z,10.60
2018-10-21T18:59:50.461Z,10.60
2018-10-21T19:02:20.421Z,10.50
2018-10-21T19:04:50.487Z,10.60
2018-10-21T19:07:20.542Z,10.50
2018-10-21T19:09:51.057Z,10.50
2018-10-21T19:12:21.970Z,10.50
2018-10-21T19:14:52.029Z,10.50
2018-10-21T19:17:23.053Z,10.50
2018-10-21T19:19:53.053Z,10.40
2018-10-21T19:22:23.084Z,10.40
2018-10-21T19:24:53.890Z,10.40
2018-10-21T19:27:24.388Z,10.40
2018-10-21T19:29:54.429Z,10.30
2018-10-21T19:32:24.447Z,10.30
2018-10-21T19:34:54.493Z,10.20
2018-10-21T19:37:24.527Z,10.20
2018-10-21T19:39:54.664Z,10.20
2018-10-21T19:42:24.597Z,10.20
2018-10-21T19:44:54.655Z,10.20
2018-10-21T19:47:24.710Z,10.00
2018-10-21T19:49:54.894Z,10.00
2018-10-21T19:52:24.959Z,10.10
2018-10-21T19:54:55.201Z,10.10
2018-10-21T19:57:25.207Z,10.00
2018-10-21T19:59:56.046Z,10.00
2018-10-21T20:02:26.089Z,10.00
2018-10-21T20:04:56.078Z,9.90
2018-10-21T20:07:26.366Z,9.90
2018-10-21T20:09:56.397Z,9.90
2018-10-21T20:12:26.361Z,9.90
2018-10-21T20:14:56.352Z,10.00
2018-10-21T20:17:26.275Z,10.00
2018-10-21T20:19:56.127Z,10.00
2018-10-21T20:22:25.934Z,9.90
2018-10-21T20:24:55.980Z,9.90
2018-10-21T20:27:25.978Z,9.80
2018-10-21T20:29:55.986Z,9.80
2018-10-21T20:32:26.378Z,9.80
2018-10-21T20:34:56.393Z,9.80
2018-10-21T20:37:27.399Z,9.70
2018-10-21T20:39:58.311Z,9.70
2018-10-21T20:42:26.625Z,9.60
2018-10-21T20:44:54.517Z,9.60
2018-10-21T20:47:22.394Z,9.40
2018-10-21T20:49:50.346Z,9.30
2018-10-21T20:52:18.373Z,9.30
2018-10-21T20:54:48.816Z,9.20
2018-10-21T20:57:16.617Z,9.20
2018-10-21T20:59:45.644Z,9.00
2018-10-21T21:02:14.176Z,9.10
2018-10-21T21:04:41.935Z,9.00
2018-10-21T21:07:10.129Z,9.00
2018-10-21T21:09:38.762Z,9.00
2018-10-21T21:12:06.525Z,9.00
2018-10-21T21:14:34.365Z,9.00
2018-10-21T21:17:02.805Z,8.90
2018-10-21T21:19:30.600Z,8.90
2018-10-21T21:21:58.282Z,8.80
2018-10-21T21:24:26.196Z,8.80
2018-10-21T21:26:54.036Z,8.80
2018-10-21T21:29:21.768Z,8.80
2018-10-21T21:31:49.593Z,8.80
2018-10-21T21:34:17.879Z,8.80
2018-10-21T21:36:45.672Z,8.70
2018-10-21T21:39:14.630Z,8.60
2018-10-21T21:41:43.764Z,8.60
2018-10-21T21:44:11.599Z,8.60
2018-10-21T21:46:40.105Z,8.50
2018-10-21T21:49:09.519Z,8.30
2018-10-21T21:51:37.577Z,8.20
2018-10-21T21:54:06.369Z,8.20
2018-10-21T21:56:38.159Z,8.10
2018-10-21T21:59:07.996Z,8.10
2018-10-21T22:01:35.992Z,8.20
2018-10-21T22:04:03.798Z,8.20
2018-10-21T22:06:31.920Z,8.20
2018-10-21T22:09:00.590Z,8.20
2018-10-21T22:11:28.431Z,7.90
2018-10-21T22:13:57.034Z,7.90
2018-10-21T22:16:28.556Z,8.00
2018-10-21T22:18:56.372Z,7.90
2018-10-21T22:21:24.117Z,8.00
2018-10-21T22:23:51.867Z,7.90
2018-10-21T22:26:19.644Z,7.80
2018-10-21T22:28:47.379Z,7.90
2018-10-21T22:31:15.133Z,7.90
2018-10-21T22:33:46.453Z,7.90
2018-10-21T22:36:14.224Z,7.70
2018-10-21T22:38:41.948Z,7.80
2018-10-21T22:41:09.603Z,7.80
2018-10-21T22:43:37.359Z,7.90
2018-10-21T22:46:05.350Z,7.90
2018-10-21T22:48:33.014Z,7.90
2018-10-21T22:51:00.756Z,7.90
2018-10-21T22:53:28.547Z,7.90
2018-10-21T22:55:56.268Z,7.80
2018-10-21T22:58:24.029Z,7.60
2018-10-21T23:00:51.824Z,7.60
2018-10-21T23:03:19.620Z,7.70
2018-10-21T23:05:47.384Z,7.70
2018-10-21T23:08:15.164Z,7.50
2018-10-21T23:10:42.880Z,7.60
2018-10-21T23:13:10.593Z,7.60
2018-10-21T23:15:38.292Z,7.50
2018-10-21T23:18:06.111Z,7.40
2018-10-21T23:20:33.763Z,7.60
2018-10-21T23:23:01.465Z,7.60
2018-10-21T23:25:29.296Z,7.70
2018-10-21T23:27:57.055Z,7.60
2018-10-21T23:30:24.799Z,7.60
2018-10-21T23:32:52.500Z,7.60
2018-10-21T23:35:20.316Z,7.60
2018-10-21T23:37:48.077Z,7.60
2018-10-21T23:40:15.869Z,7.40
2018-10-21T23:42:43.605Z,7.50
2018-10-21T23:45:11.301Z,7.60
2018-10-21T23:47:39.000Z,7.60
2018-10-21T23:50:07.263Z,7.60
2018-10-21T23:52:35.015Z,7.60
2018-10-21T23:55:02.758Z,7.50
2018-10-21T23:57:30.479Z,7.50
2018-10-21T23:59:58.224Z,7.40
